Time;durP1;ratioP1;P1;durP2;ratioP2;P2;SDS_P1;SDS_P2;PMS_P1;PMS_P2;Temp;Humidity;BMP_temperature;BMP_pressure;BME280_temperature;BME280_humidity;BME280_pressure;Samples;Min_cycle;Max_cycle;Signal;HPM_P1;HPM_P2
2023/01/29 00:00:09;;;;;;;2.65;1.17;;;;;;;;;;5072428;28;20031;-42
2023/01/29 00:02:35;;;;;;;1.13;0.90;;;;;;;;;;5073743;28;20043;-42
2023/01/29 00:05:03;;;;;;;3.20;1.27;;;;;;;;;;5071439;28;20041;-42
2023/01/29 00:07:29;;;;;;;2.40;1.20;;;;;;;;;;5073281;28;20138;-43
2023/01/29 00:09:55;;;;;;;1.10;1.00;;;;;;;;;;5063046;28;20016;-42
2023/01/29 00:12:21;;;;;;;1.55;1.00;;;;;;;;;;5072877;28;20058;-43
2023/01/29 00:14:47;;;;;;;1.98;1.10;;;;;;;;;;5065674;28;20024;-43
2023/01/29 00:17:13;;;;;;;2.75;1.10;;;;;;;;;;5073391;28;20024;-42
2023/01/29 00:19:38;;;;;;;2.03;1.30;;;;;;;;;;5069384;28;20040;-43
2023/01/29 00:22:04;;;;;;;1.67;1.30;;;;;;;;;;5073353;28;20476;-44
2023/01/29 00:24:30;;;;;;;3.03;1.52;;;;;;;;;;5073032;28;20032;-44
2023/01/29 00:26:56;;;;;;;1.40;1.00;;;;;;;;;;5072661;28;20040;-44
2023/01/29 00:29:22;;;;;;;1.98;1.60;;;;;;;;;;5072546;28;20025;-45
2023/01/29 00:31:48;;;;;;;1.63;1.50;;;;;;;;;;5071603;28;20478;-45
2023/01/29 00:34:14;;;;;;;1.60;1.30;;;;;;;;;;5062237;28;20028;-43
2023/01/29 00:36:43;;;;;;;2.42;1.27;;;;;;;;;;5066689;28;20033;-43
2023/01/29 00:39:12;;;;;;;1.27;1.00;;;;;;;;;;5071910;28;20013;-43
2023/01/29 00:47:29;;;;;;;2.67;1.45;;;;;;;;;;5073150;28;20028;-43
2023/01/29 00:49:54;;;;;;;1.25;1.00;;;;;;;;;;5059383;28;20028;-43
2023/01/29 00:52:23;;;;;;;1.50;1.40;;;;;;;;;;5066586;28;20033;-42
2023/01/29 00:54:49;;;;;;;1.92;1.08;;;;;;;;;;5064731;28;20021;-44
2023/01/29 00:57:15;;;;;;;1.50;1.10;;;;;;;;;;5073317;28;20039;-43
2023/01/29 00:59:41;;;;;;;1.85;1.15;;;;;;;;;;5071931;28;20021;-42
2023/01/29 01:04:52;;;;;;;1.75;0.95;;;;;;;;;;5061957;28;20454;-42
2023/01/29 01:07:18;;;;;;;1.73;0.88;;;;;;;;;;5072569;28;20099;-44
2023/01/29 01:12:29;;;;;;;1.90;1.05;;;;;;;;;;5061220;28;20110;-43
2023/01/29 01:14:54;;;;;;;2.40;0.90;;;;;;;;;;5070805;28;20485;-46
2023/01/29 01:17:21;;;;;;;1.67;0.73;;;;;;;;;;5070665;28;20146;-45
2023/01/29 01:19:46;;;;;;;1.50;1.10;;;;;;;;;;5069829;28;20105;-43
2023/01/29 01:22:12;;;;;;;1.88;1.10;;;;;;;;;;5067076;28;20076;-43
2023/01/29 01:24:39;;;;;;;1.27;1.15;;;;;;;;;;5071119;28;20024;-43
2023/01/29 01:27:05;;;;;;;1.67;0.98;;;;;;;;;;5056426;28;20009;-44
2023/01/29 01:29:31;;;;;;;1.10;1.00;;;;;;;;;;5058568;28;20032;-42
2023/01/29 01:31:57;;;;;;;2.35;1.25;;;;;;;;;;5069821;28;20032;-43
2023/01/29 01:34:23;;;;;;;1.52;1.05;;;;;;;;;;5071360;28;20070;-43
2023/01/29 01:36:49;;;;;;;1.25;1.00;;;;;;;;;;5071248;28;20032;-42
2023/01/29 01:39:15;;;;;;;1.73;1.42;;;;;;;;;;5071029;28;20504;-42
2023/01/29 01:41:41;;;;;;;1.73;1.13;;;;;;;;;;5064048;28;20017;-42
2023/01/29 01:44:07;;;;;;;1.33;0.90;;;;;;;;;;5071063;28;20492;-42
2023/01/29 01:46:34;;;;;;;1.15;1.02;;;;;;;;;;5061047;28;20082;-43
2023/01/29 01:49:00;;;;;;;1.42;1.13;;;;;;;;;;5068802;28;20398;-43
2023/01/29 01:51:28;;;;;;;1.77;0.95;;;;;;;;;;5071881;28;20027;-43
2023/01/29 01:53:56;;;;;;;1.00;0.80;;;;;;;;;;5061896;28;20028;-43
2023/01/29 01:56:28;;;;;;;1.65;1.05;;;;;;;;;;5067968;28;20075;-42
2023/01/29 01:58:55;;;;;;;1.10;0.90;;;;;;;;;;5070293;28;20032;-44
2023/01/29 02:01:26;;;;;;;2.03;1.25;;;;;;;;;;5066288;28;20074;-42
2023/01/29 02:09:34;;;;;;;1.23;1.00;;;;;;;;;;5070801;28;20131;-44
2023/01/29 02:12:11;;;;;;;1.30;0.90;;;;;;;;;;5070649;28;20052;-45
2023/01/29 02:14:39;;;;;;;1.10;0.85;;;;;;;;;;5058523;28;20119;-44
2023/01/29 02:17:06;;;;;;;1.33;1.00;;;;;;;;;;5057876;28;20123;-42
2023/01/29 02:19:38;;;;;;;1.10;0.85;;;;;;;;;;5058471;28;20412;-42
2023/01/29 02:22:24;;;;;;;0.93;0.82;;;;;;;;;;5063913;28;20036;-43
2023/01/29 02:24:59;;;;;;;1.30;1.02;;;;;;;;;;5057129;28;20024;-43
2023/01/29 02:27:43;;;;;;;1.77;1.05;;;;;;;;;;5065976;28;20409;-42
2023/01/29 02:30:15;;;;;;;1.23;0.90;;;;;;;;;;5061017;28;20029;-42
2023/01/29 02:32:53;;;;;;;1.10;1.00;;;;;;;;;;5061944;28;20033;-42
2023/01/29 02:35:30;;;;;;;1.10;1.00;;;;;;;;;;5070534;28;20024;-43
2023/01/29 02:38:16;;;;;;;2.70;1.00;;;;;;;;;;5058063;28;20056;-42
2023/01/29 02:40:53;;;;;;;1.70;1.13;;;;;;;;;;5067138;28;20024;-42
2023/01/29 02:43:27;;;;;;;1.42;1.10;;;;;;;;;;5070330;28;20025;-44
2023/01/29 02:45:59;;;;;;;1.20;0.90;;;;;;;;;;5069485;28;20046;-43
2023/01/29 02:48:29;;;;;;;1.15;0.93;;;;;;;;;;5070111;28;20039;-42
2023/01/29 02:50:55;;;;;;;1.08;0.80;;;;;;;;;;5069699;28;20484;-43
2023/01/29 02:53:37;;;;;;;1.52;1.05;;;;;;;;;;5057771;28;20037;-43
2023/01/29 02:56:09;;;;;;;2.53;0.98;;;;;;;;;;5059041;28;20020;-43
2023/01/29 02:58:35;;;;;;;;;;;;;;;;;;5071028;28;20052;-42
2023/01/29 03:01:04;;;;;;;1.15;0.75;;;;;;;;;;5069024;28;19905;-43
2023/01/29 03:03:50;;;;;;;1.55;1.00;;;;;;;;;;5070616;28;20044;-43
2023/01/29 03:06:34;;;;;;;1.67;1.00;;;;;;;;;;5070030;28;20139;-43
2023/01/29 03:09:20;;;;;;;1.35;0.80;;;;;;;;;;5068497;28;20021;-43
2023/01/29 03:11:50;;;;;;;0.88;0.75;;;;;;;;;;5069284;28;20020;-43
2023/01/29 03:17:33;;;;;;;1.27;1.17;;;;;;;;;;5060621;28;20129;-43
2023/01/29 03:19:59;;;;;;;;;;;;;;;;;;5071495;28;20194;-43
2023/01/29 03:22:26;;;;;;;1.10;0.90;;;;;;;;;;5070161;28;19912;-43
2023/01/29 03:33:13;;;;;;;1.40;1.05;;;;;;;;;;5068879;28;20507;-43
2023/01/29 03:35:49;;;;;;;1.08;0.80;;;;;;;;;;5064212;28;20028;-43
2023/01/29 03:38:15;;;;;;;1.33;0.90;;;;;;;;;;5070437;28;20033;-43
2023/01/29 03:40:44;;;;;;;1.42;0.90;;;;;;;;;;5062487;28;20029;-43
2023/01/29 03:43:13;;;;;;;1.30;0.85;;;;;;;;;;5056231;28;20503;-43
2023/01/29 03:45:57;;;;;;;0.88;0.73;;;;;;;;;;5066351;28;20362;-43
2023/01/29 03:48:23;;;;;;;1.58;1.00;;;;;;;;;;5072984;28;20400;-44
2023/01/29 03:51:07;;;;;;;0.77;0.65;;;;;;;;;;5072594;28;20031;-43
2023/01/29 03:53:46;;;;;;;1.52;0.88;;;;;;;;;;5060315;28;20064;-43
2023/01/29 03:56:31;;;;;;;1.17;0.88;;;;;;;;;;5073984;28;20039;-44
2023/01/29 03:59:00;;;;;;;1.00;0.82;;;;;;;;;;5061855;28;20033;-43
2023/01/29 04:01:32;;;;;;;1.23;0.80;;;;;;;;;;5073471;28;20108;-43
2023/01/29 04:04:04;;;;;;;1.20;0.75;;;;;;;;;;5072437;28;20040;-42
2023/01/29 04:06:32;;;;;;;1.30;0.98;;;;;;;;;;5072925;28;20123;-43
2023/01/29 04:09:02;;;;;;;1.08;0.70;;;;;;;;;;5069658;28;20033;-43
2023/01/29 04:11:29;;;;;;;1.50;1.15;;;;;;;;;;5072725;28;20350;-42
2023/01/29 04:13:55;;;;;;;1.50;1.00;;;;;;;;;;5069545;28;20025;-43
2023/01/29 04:16:51;;;;;;;1.23;1.13;;;;;;;;;;5069115;28;20016;-42
2023/01/29 04:19:17;;;;;;;1.50;1.00;;;;;;;;;;5037552;28;20045;-43
2023/01/29 04:21:44;;;;;;;1.55;0.90;;;;;;;;;;5066485;28;20035;-44
2023/01/29 04:24:12;;;;;;;1.52;0.90;;;;;;;;;;5072077;28;20052;-43
2023/01/29 04:26:50;;;;;;;1.75;0.70;;;;;;;;;;5070513;28;20043;-43
2023/01/29 04:29:39;;;;;;;1.23;0.98;;;;;;;;;;5071084;28;20039;-42
2023/01/29 04:32:18;;;;;;;1.10;0.85;;;;;;;;;;5072288;28;20028;-43
2023/01/29 04:35:03;;;;;;;2.05;0.95;;;;;;;;;;5071713;28;20033;-43
2023/01/29 04:37:36;;;;;;;1.30;0.80;;;;;;;;;;5072654;28;20030;-43
2023/01/29 04:40:18;;;;;;;1.83;1.17;;;;;;;;;;5071489;28;20208;-43
2023/01/29 04:42:44;;;;;;;;;;;;;;;;;;5071007;28;20034;-43
2023/01/29 04:45:17;;;;;;;1.42;1.00;;;;;;;;;;5071869;28;20280;-43
2023/01/29 04:47:58;;;;;;;0.82;0.73;;;;;;;;;;5070208;28;20473;-43
2023/01/29 04:50:28;;;;;;;0.70;0.70;;;;;;;;;;5061454;28;20104;-43
2023/01/29 04:53:15;;;;;;;1.00;0.85;;;;;;;;;;5065616;28;20125;-43
2023/01/29 04:55:49;;;;;;;1.35;0.98;;;;;;;;;;5070645;28;20381;-43
2023/01/29 04:58:15;;;;;;;1.40;1.00;;;;;;;;;;5064455;28;20035;-43
2023/01/29 05:00:44;;;;;;;1.30;0.90;;;;;;;;;;5058132;28;20092;-42
2023/01/29 05:03:12;;;;;;;1.25;0.88;;;;;;;;;;5060802;28;20033;-42
2023/01/29 05:05:43;;;;;;;1.00;0.75;;;;;;;;;;5068498;28;20047;-43
2023/01/29 05:08:12;;;;;;;0.98;0.77;;;;;;;;;;5071192;28;20103;-44
2023/01/29 05:10:38;;;;;;;1.80;1.00;;;;;;;;;;5074804;28;20024;-44
2023/01/29 05:13:06;;;;;;;1.63;0.82;;;;;;;;;;5053952;28;20422;-44
2023/01/29 05:15:37;;;;;;;1.00;0.80;;;;;;;;;;5053537;28;20078;-44
2023/01/29 05:18:07;;;;;;;0.93;0.80;;;;;;;;;;5071959;28;20040;-43
2023/01/29 05:20:35;;;;;;;0.95;0.77;;;;;;;;;;5059459;28;20036;-43
2023/01/29 05:23:01;;;;;;;1.50;0.82;;;;;;;;;;5056377;28;20025;-42
2023/01/29 05:25:31;;;;;;;1.08;0.63;;;;;;;;;;5071788;28;20542;-43
2023/01/29 05:30:54;;;;;;;1.38;0.90;;;;;;;;;;5048912;28;20024;-45
2023/01/29 05:33:26;;;;;;;1.17;0.90;;;;;;;;;;5071977;28;20103;-43
2023/01/29 05:35:52;;;;;;;1.45;0.70;;;;;;;;;;5071014;28;20094;-43
2023/01/29 05:38:18;;;;;;;1.65;0.93;;;;;;;;;;5071865;28;20036;-44
2023/01/29 05:40:44;;;;;;;1.15;0.70;;;;;;;;;;5065886;28;20063;-43
2023/01/29 05:43:20;;;;;;;1.02;0.80;;;;;;;;;;5055020;28;20036;-43
2023/01/29 05:45:53;;;;;;;2.80;0.95;;;;;;;;;;5063301;28;20025;-43
2023/01/29 05:48:19;;;;;;;0.85;0.73;;;;;;;;;;5069164;28;20032;-42
2023/01/29 05:50:45;;;;;;;1.10;0.75;;;;;;;;;;5044109;28;20063;-42
2023/01/29 05:53:11;;;;;;;0.73;0.65;;;;;;;;;;5059770;28;20032;-43
2023/01/29 05:55:37;;;;;;;0.90;0.75;;;;;;;;;;5071163;28;20111;-43
2023/01/29 05:58:03;;;;;;;1.40;1.08;;;;;;;;;;5069980;28;20024;-43
2023/01/29 06:00:29;;;;;;;0.95;0.70;;;;;;;;;;5070687;28;20048;-42
2023/01/29 06:02:55;;;;;;;0.82;0.70;;;;;;;;;;5065908;28;20442;-43
2023/01/29 06:05:21;;;;;;;1.10;0.93;;;;;;;;;;5070639;28;20079;-45
2023/01/29 06:07:47;;;;;;;1.08;0.88;;;;;;;;;;5067072;28;20056;-43
2023/01/29 06:10:14;;;;;;;2.28;1.02;;;;;;;;;;5068446;28;20028;-43
2023/01/29 06:12:40;;;;;;;0.85;0.77;;;;;;;;;;5068375;28;20025;-42
2023/01/29 06:15:07;;;;;;;0.93;0.70;;;;;;;;;;5069702;28;20028;-43
2023/01/29 06:17:32;;;;;;;2.53;0.88;;;;;;;;;;5070905;28;20051;-42
2023/01/29 06:19:58;;;;;;;1.08;0.98;;;;;;;;;;5069684;28;20056;-44
2023/01/29 06:22:24;;;;;;;1.05;0.70;;;;;;;;;;5070231;28;20036;-42
2023/01/29 06:24:50;;;;;;;0.80;0.70;;;;;;;;;;5040092;28;20032;-43
2023/01/29 06:27:16;;;;;;;0.75;0.65;;;;;;;;;;5070759;28;20141;-43
2023/01/29 06:29:42;;;;;;;1.27;0.90;;;;;;;;;;5069371;28;20020;-42
2023/01/29 06:32:08;;;;;;;0.93;0.75;;;;;;;;;;5063476;28;20440;-43
2023/01/29 06:34:34;;;;;;;1.15;0.80;;;;;;;;;;5070662;28;20159;-43
2023/01/29 06:37:00;;;;;;;0.88;0.70;;;;;;;;;;5065964;28;20048;-42
2023/01/29 06:39:26;;;;;;;1.90;0.90;;;;;;;;;;5063810;28;20070;-43
2023/01/29 06:41:52;;;;;;;0.88;0.80;;;;;;;;;;5065381;28;20416;-43
2023/01/29 06:44:18;;;;;;;1.63;0.98;;;;;;;;;;5063770;28;20028;-44
2023/01/29 06:46:44;;;;;;;0.88;0.82;;;;;;;;;;5071070;28;20029;-42
2023/01/29 06:49:10;;;;;;;1.25;0.68;;;;;;;;;;5070645;28;20023;-45
2023/01/29 06:51:36;;;;;;;1.00;0.70;;;;;;;;;;5071053;28;20032;-45
2023/01/29 06:54:02;;;;;;;1.05;0.65;;;;;;;;;;5069563;28;20185;-43
2023/01/29 06:56:28;;;;;;;1.27;0.80;;;;;;;;;;5070622;28;20501;-43
2023/01/29 06:58:54;;;;;;;1.45;0.80;;;;;;;;;;5069498;28;20381;-43
2023/01/29 07:01:20;;;;;;;1.25;0.85;;;;;;;;;;5063426;28;20075;-43
2023/01/29 07:03:49;;;;;;;0.73;0.65;;;;;;;;;;5066393;28;20031;-43
2023/01/29 07:06:15;;;;;;;1.45;0.70;;;;;;;;;;5070527;28;20060;-43
2023/01/29 07:08:41;;;;;;;0.82;0.70;;;;;;;;;;5070088;28;20048;-42
2023/01/29 07:11:07;;;;;;;1.27;0.90;;;;;;;;;;5070299;28;20020;-43
2023/01/29 07:13:33;;;;;;;1.13;0.93;;;;;;;;;;5065788;28;20107;-43
2023/01/29 07:16:00;;;;;;;1.27;1.10;;;;;;;;;;5065421;28;20644;-42
2023/01/29 07:18:27;;;;;;;3.58;1.30;;;;;;;;;;5061497;28;20036;-43
2023/01/29 07:20:53;;;;;;;1.80;1.17;;;;;;;;;;5068170;28;20050;-44
2023/01/29 07:23:19;;;;;;;2.75;1.10;;;;;;;;;;5073614;28;20410;-43
2023/01/29 07:25:45;;;;;;;1.98;1.40;;;;;;;;;;5071570;28;20109;-43
2023/01/29 07:28:11;;;;;;;3.13;1.00;;;;;;;;;;5068616;28;20052;-43
2023/01/29 07:30:37;;;;;;;1.40;0.98;;;;;;;;;;5070364;28;20012;-42
2023/01/29 07:33:03;;;;;;;1.13;0.80;;;;;;;;;;5069491;28;20390;-42
2023/01/29 07:35:29;;;;;;;1.88;1.10;;;;;;;;;;5072522;28;20036;-43
2023/01/29 07:37:55;;;;;;;2.65;1.42;;;;;;;;;;5072549;28;20033;-43
2023/01/29 07:40:21;;;;;;;1.00;0.73;;;;;;;;;;5070525;28;20017;-42
2023/01/29 07:42:47;;;;;;;3.30;1.15;;;;;;;;;;5069894;28;20089;-43
2023/01/29 07:45:13;;;;;;;1.52;1.00;;;;;;;;;;5070379;28;20035;-43
2023/01/29 07:47:39;;;;;;;1.00;0.90;;;;;;;;;;5071499;28;20025;-42
2023/01/29 07:50:05;;;;;;;0.93;0.60;;;;;;;;;;5072075;28;20706;-43
2023/01/29 07:52:32;;;;;;;2.28;1.70;;;;;;;;;;5070475;28;20083;-43
2023/01/29 07:54:58;;;;;;;2.35;1.02;;;;;;;;;;5069381;28;20094;-43
2023/01/29 07:57:25;;;;;;;0.85;0.70;;;;;;;;;;5068379;28;20059;-43
2023/01/29 07:59:51;;;;;;;1.08;0.80;;;;;;;;;;5067297;28;20024;-42
2023/01/29 08:02:17;;;;;;;4.50;1.10;;;;;;;;;;5073006;28;20563;-43
2023/01/29 08:04:43;;;;;;;0.90;0.73;;;;;;;;;;5071603;28;20028;-42
2023/01/29 08:07:09;;;;;;;1.88;0.98;;;;;;;;;;5066352;28;20043;-42
2023/01/29 08:09:35;;;;;;;1.55;1.00;;;;;;;;;;5052352;28;20035;-43
2023/01/29 08:12:02;;;;;;;1.45;0.88;;;;;;;;;;5072344;28;20027;-43
2023/01/29 08:14:28;;;;;;;1.50;0.82;;;;;;;;;;5070587;28;20036;-43
2023/01/29 08:16:54;;;;;;;2.13;0.80;;;;;;;;;;5069330;28;20020;-43
2023/01/29 08:19:20;;;;;;;1.27;0.93;;;;;;;;;;5067537;28;20056;-42
2023/01/29 08:21:46;;;;;;;2.35;0.73;;;;;;;;;;5072299;28;20017;-43
2023/01/29 08:24:12;;;;;;;2.33;1.05;;;;;;;;;;5069207;28;20056;-42
2023/01/29 08:26:38;;;;;;;0.75;0.70;;;;;;;;;;5072817;28;20067;-43
2023/01/29 08:29:04;;;;;;;1.10;0.80;;;;;;;;;;5071958;28;20150;-42
2023/01/29 08:31:30;;;;;;;1.75;0.90;;;;;;;;;;5072086;28;20048;-43
2023/01/29 08:33:55;;;;;;;7.57;1.00;;;;;;;;;;5067359;28;20041;-43
2023/01/29 08:36:22;;;;;;;2.13;1.08;;;;;;;;;;5070899;28;20024;-42
2023/01/29 08:38:48;;;;;;;1.77;0.90;;;;;;;;;;5060373;28;20032;-43
2023/01/29 08:41:14;;;;;;;2.13;1.00;;;;;;;;;;5068116;28;20378;-43
2023/01/29 08:43:40;;;;;;;3.85;1.10;;;;;;;;;;5069285;28;20112;-42
2023/01/29 08:46:06;;;;;;;2.33;1.30;;;;;;;;;;5070476;28;20078;-46
2023/01/29 08:48:33;;;;;;;6.50;1.17;;;;;;;;;;5070874;28;20104;-45
2023/01/29 08:50:59;;;;;;;2.40;1.13;;;;;;;;;;5064419;28;20976;-45
2023/01/29 08:53:25;;;;;;;2.97;1.25;;;;;;;;;;5060595;28;20553;-45
2023/01/29 08:55:51;;;;;;;4.78;1.20;;;;;;;;;;5064033;28;20124;-44
2023/01/29 08:58:18;;;;;;;2.50;1.38;;;;;;;;;;5067648;28;20463;-44
2023/01/29 09:00:44;;;;;;;4.35;1.40;;;;;;;;;;5067716;28;20055;-46
2023/01/29 09:03:10;;;;;;;2.17;1.00;;;;;;;;;;5066832;28;20037;-44
2023/01/29 09:05:36;;;;;;;2.20;1.50;;;;;;;;;;5065767;28;20106;-45
2023/01/29 09:08:02;;;;;;;3.10;1.30;;;;;;;;;;5065831;28;20519;-46
2023/01/29 09:10:28;;;;;;;2.13;1.00;;;;;;;;;;5064784;28;20028;-44
2023/01/29 09:12:54;;;;;;;2.05;1.20;;;;;;;;;;5065682;28;20507;-43
2023/01/29 09:15:20;;;;;;;4.60;0.77;;;;;;;;;;5066165;28;20075;-44
2023/01/29 09:17:48;;;;;;;2.75;1.08;;;;;;;;;;5065389;28;20396;-44
2023/01/29 09:20:14;;;;;;;3.10;1.65;;;;;;;;;;5067740;28;20021;-44
2023/01/29 09:22:40;;;;;;;1.85;0.90;;;;;;;;;;5067160;28;20041;-43
2023/01/29 09:25:06;;;;;;;1.98;1.20;;;;;;;;;;5067216;28;20030;-44
2023/01/29 09:27:33;;;;;;;5.90;1.05;;;;;;;;;;5066247;28;20106;-45
2023/01/29 09:29:59;;;;;;;2.30;1.08;;;;;;;;;;5067865;28;20021;-43
2023/01/29 09:32:25;;;;;;;1.70;0.88;;;;;;;;;;5067558;28;20532;-43
2023/01/29 09:34:51;;;;;;;6.07;1.17;;;;;;;;;;5068886;28;20031;-43
2023/01/29 09:37:17;;;;;;;2.20;1.30;;;;;;;;;;5068220;28;20127;-44
2023/01/29 09:39:43;;;;;;;2.13;0.90;;;;;;;;;;5061985;28;20060;-45
2023/01/29 09:42:12;;;;;;;4.38;1.05;;;;;;;;;;5065208;28;20454;-45
2023/01/29 09:44:57;;;;;;;4.50;1.05;;;;;;;;;;5065257;28;20024;-46
2023/01/29 09:47:25;;;;;;;3.70;1.58;;;;;;;;;;5065399;28;20064;-45
2023/01/29 09:49:57;;;;;;;2.65;1.20;;;;;;;;;;5067046;28;20024;-44
2023/01/29 09:52:26;;;;;;;1.70;0.90;;;;;;;;;;5062018;28;20484;-46
2023/01/29 09:55:02;;;;;;;2.55;1.10;;;;;;;;;;5066142;28;20393;-46
2023/01/29 09:57:41;;;;;;;1.58;1.00;;;;;;;;;;5067765;28;20016;-45
2023/01/29 10:00:13;;;;;;;2.72;1.00;;;;;;;;;;5066755;28;20016;-44
2023/01/29 10:02:59;;;;;;;0.95;0.82;;;;;;;;;;5063770;28;20043;-43
2023/01/29 10:05:28;;;;;;;0.93;0.80;;;;;;;;;;5050969;28;20049;-43
2023/01/29 10:08:04;;;;;;;4.03;1.50;;;;;;;;;;5053424;28;20420;-44
2023/01/29 10:10:33;;;;;;;1.13;0.70;;;;;;;;;;5055267;28;20085;-44
2023/01/29 10:13:10;;;;;;;4.75;2.53;;;;;;;;;;5054126;28;20028;-43
2023/01/29 10:15:48;;;;;;;3.72;0.95;;;;;;;;;;5051925;28;20036;-43
2023/01/29 10:18:40;;;;;;;3.22;1.63;;;;;;;;;;5053161;28;20368;-44
2023/01/29 10:21:25;;;;;;;4.10;1.10;;;;;;;;;;5056480;28;20542;-47
2023/01/29 10:24:04;;;;;;;3.03;1.17;;;;;;;;;;5051448;28;20036;-44
2023/01/29 10:26:32;;;;;;;2.33;1.17;;;;;;;;;;5049602;28;20028;-44
2023/01/29 10:28:59;;;;;;;1.45;0.95;;;;;;;;;;5054807;28;20035;-44
2023/01/29 10:31:33;;;;;;;4.38;1.45;;;;;;;;;;5051787;28;20546;-46
2023/01/29 10:34:06;;;;;;;2.95;1.58;;;;;;;;;;5051015;28;20033;-45
2023/01/29 10:36:35;;;;;;;2.50;1.05;;;;;;;;;;5058172;28;20040;-45
2023/01/29 10:39:01;;;;;;;2.25;1.00;;;;;;;;;;5057770;28;20623;-45
2023/01/29 10:41:27;;;;;;;3.97;1.35;;;;;;;;;;5048588;28;21182;-44
2023/01/29 10:44:02;;;;;;;6.68;1.77;;;;;;;;;;5051319;28;20029;-44
2023/01/29 10:46:46;;;;;;;4.32;1.30;;;;;;;;;;5051946;28;20360;-47
2023/01/29 10:49:15;;;;;;;5.00;1.40;;;;;;;;;;5043984;28;20821;-44
2023/01/29 10:51:51;;;;;;;3.28;1.30;;;;;;;;;;5033018;28;20370;-44
2023/01/29 10:54:35;;;;;;;6.18;1.40;;;;;;;;;;5058458;28;20491;-46
2023/01/29 10:57:07;;;;;;;4.75;1.42;;;;;;;;;;5052584;28;20470;-43
2023/01/29 10:59:43;;;;;;;2.45;1.20;;;;;;;;;;5047073;28;20028;-43
2023/01/29 11:02:17;;;;;;;3.35;1.30;;;;;;;;;;5055636;28;20028;-43
2023/01/29 11:04:43;;;;;;;4.75;1.35;;;;;;;;;;5061087;28;20021;-41
2023/01/29 11:07:10;;;;;;;2.30;1.33;;;;;;;;;;5071598;28;20032;-43
2023/01/29 11:09:43;;;;;;;3.25;1.35;;;;;;;;;;5072376;28;20035;-43
2023/01/29 11:12:12;;;;;;;3.78;1.30;;;;;;;;;;5071322;28;20086;-43
2023/01/29 11:14:50;;;;;;;3.53;1.30;;;;;;;;;;5068889;28;20044;-43
2023/01/29 11:17:17;;;;;;;3.08;1.25;;;;;;;;;;5071175;28;20032;-46
2023/01/29 11:19:44;;;;;;;4.93;1.70;;;;;;;;;;5071342;28;20473;-43
2023/01/29 11:22:15;;;;;;;2.97;1.38;;;;;;;;;;5070739;28;20029;-47
2023/01/29 11:24:41;;;;;;;5.40;2.45;;;;;;;;;;5070513;28;20048;-43
2023/01/29 11:27:15;;;;;;;2.88;1.35;;;;;;;;;;5072698;28;20043;-43
2023/01/29 11:29:43;;;;;;;2.70;1.20;;;;;;;;;;5066624;28;20477;-43
2023/01/29 11:32:13;;;;;;;4.38;1.80;;;;;;;;;;5069626;28;20035;-44
2023/01/29 11:34:58;;;;;;;5.32;1.27;;;;;;;;;;5066153;28;20029;-44
2023/01/29 11:37:31;;;;;;;4.32;1.45;;;;;;;;;;5061176;28;20029;-44
2023/01/29 11:39:57;;;;;;;6.03;2.40;;;;;;;;;;5063287;28;20016;-45
2023/01/29 11:42:25;;;;;;;5.93;1.40;;;;;;;;;;5064756;28;20025;-45
2023/01/29 11:44:51;;;;;;;6.13;1.85;;;;;;;;;;5061337;28;20017;-46
2023/01/29 11:47:25;;;;;;;2.92;1.58;;;;;;;;;;5062239;28;20032;-43
2023/01/29 11:49:53;;;;;;;4.63;1.92;;;;;;;;;;5070941;28;20021;-42
2023/01/29 11:52:21;;;;;;;3.13;1.13;;;;;;;;;;5071493;28;20070;-45
2023/01/29 11:54:49;;;;;;;3.40;1.23;;;;;;;;;;5069023;28;20039;-43
2023/01/29 11:57:27;;;;;;;6.85;1.50;;;;;;;;;;5068648;28;20040;-44
2023/01/29 11:59:55;;;;;;;4.55;1.75;;;;;;;;;;5066878;28;20055;-43
2023/01/29 12:02:34;;;;;;;6.85;1.60;;;;;;;;;;5062998;28;20131;-46
2023/01/29 12:05:02;;;;;;;23.55;2.33;;;;;;;;;;5053699;28;20086;-44
2023/01/29 12:07:29;;;;;;;8.20;1.65;;;;;;;;;;5054444;28;20021;-47
2023/01/29 12:09:56;;;;;;;3.92;1.67;;;;;;;;;;5053654;28;20499;-46
2023/01/29 12:12:43;;;;;;;4.55;1.83;;;;;;;;;;5054236;28;20028;-46
2023/01/29 12:15:20;;;;;;;8.10;1.50;;;;;;;;;;5067408;28;20097;-44
2023/01/29 12:17:51;;;;;;;6.75;1.40;;;;;;;;;;5063713;28;20473;-44
2023/01/29 12:20:20;;;;;;;2.63;1.40;;;;;;;;;;5055120;28;20040;-44
2023/01/29 12:22:55;;;;;;;3.25;1.70;;;;;;;;;;5057042;28;20037;-45
2023/01/29 12:25:40;;;;;;;4.95;1.20;;;;;;;;;;5054336;28;20056;-45
2023/01/29 12:28:29;;;;;;;4.55;1.83;;;;;;;;;;5069371;28;20028;-48
2023/01/29 12:31:05;;;;;;;5.40;1.83;;;;;;;;;;5016061;28;20390;-44
2023/01/29 12:33:49;;;;;;;4.10;1.25;;;;;;;;;;5065047;28;20405;-45
2023/01/29 12:36:31;;;;;;;5.45;1.52;;;;;;;;;;5064457;28;20048;-45
2023/01/29 12:38:58;;;;;;;5.38;1.60;;;;;;;;;;5072513;28;20032;-45
2023/01/29 12:41:28;;;;;;;10.25;2.08;;;;;;;;;;5066320;28;20013;-49
2023/01/29 12:44:12;;;;;;;7.05;1.92;;;;;;;;;;5057306;28;20067;-46
2023/01/29 12:46:41;;;;;;;4.70;1.60;;;;;;;;;;5053368;28;20481;-45
2023/01/29 12:49:19;;;;;;;5.05;2.33;;;;;;;;;;5053240;28;20036;-46
2023/01/29 12:51:58;;;;;;;4.45;1.70;;;;;;;;;;5063588;28;20028;-45
2023/01/29 12:54:30;;;;;;;2.92;1.40;;;;;;;;;;5073099;28;20056;-47
2023/01/29 12:56:59;;;;;;;3.17;1.60;;;;;;;;;;5060672;28;20051;-45
2023/01/29 12:59:31;;;;;;;12.63;3.47;;;;;;;;;;5061538;28;20032;-46
2023/01/29 13:02:15;;;;;;;8.10;2.60;;;;;;;;;;5058656;28;20044;-46
2023/01/29 13:04:47;;;;;;;7.63;1.98;;;;;;;;;;5058641;28;20058;-45
2023/01/29 13:07:13;;;;;;;;;;;;;;;;;;5051979;28;20025;-46
2023/01/29 13:09:42;;;;;;;6.38;2.35;;;;;;;;;;5033417;28;19916;-45
2023/01/29 13:12:13;;;;;;;6.93;2.17;;;;;;;;;;5035118;28;20125;-45
2023/01/29 13:14:53;;;;;;;6.57;2.28;;;;;;;;;;5037207;28;20029;-45
2023/01/29 13:17:30;;;;;;;6.90;1.95;;;;;;;;;;5035692;28;20048;-46
2023/01/29 13:20:16;;;;;;;8.30;1.80;;;;;;;;;;5036526;28;20021;-46
2023/01/29 13:22:42;;;;;;;11.73;2.45;;;;;;;;;;5042874;28;20044;-46
2023/01/29 13:25:19;;;;;;;7.20;2.55;;;;;;;;;;5039913;28;20033;-47
2023/01/29 13:27:46;;;;;;;4.90;2.13;;;;;;;;;;5042915;28;20053;-45
2023/01/29 13:30:24;;;;;;;6.57;2.65;;;;;;;;;;5045995;28;20521;-46
2023/01/29 13:32:52;;;;;;;6.70;2.05;;;;;;;;;;5050769;28;20036;-45
2023/01/29 13:35:22;;;;;;;6.93;1.77;;;;;;;;;;5046236;28;20373;-47
2023/01/29 13:37:50;;;;;;;7.35;1.65;;;;;;;;;;5007971;28;20044;-44
2023/01/29 13:40:23;;;;;;;5.97;1.80;;;;;;;;;;5041285;28;20477;-45
2023/01/29 13:42:49;;;;;;;5.40;1.90;;;;;;;;;;5037919;28;20360;-46
2023/01/29 13:45:38;;;;;;;8.88;1.88;;;;;;;;;;5039148;28;20025;-45
2023/01/29 13:48:19;;;;;;;5.15;2.17;;;;;;;;;;5030129;28;20037;-44
2023/01/29 13:50:45;;;;;;;4.15;1.90;;;;;;;;;;5040653;28;20029;-45
2023/01/29 13:53:22;;;;;;;4.88;1.77;;;;;;;;;;5044123;28;20552;-46
2023/01/29 13:55:48;;;;;;;7.85;1.95;;;;;;;;;;5043131;28;20029;-44
2023/01/29 13:58:20;;;;;;;9.15;2.78;;;;;;;;;;5048832;28;20026;-45
2023/01/29 14:00:49;;;;;;;6.18;1.70;;;;;;;;;;5049378;28;20440;-44
2023/01/29 14:03:16;;;;;;;3.75;1.75;;;;;;;;;;5056034;28;20036;-47
2023/01/29 14:06:00;;;;;;;5.65;1.83;;;;;;;;;;5047572;28;20050;-46
2023/01/29 14:08:38;;;;;;;2.75;1.25;;;;;;;;;;5032687;28;20095;-47
2023/01/29 14:11:30;;;;;;;13.23;2.65;;;;;;;;;;5014784;28;20433;-50
2023/01/29 14:13:56;;;;;;;;;;;;;;;;;;5030427;28;20037;-46
2023/01/29 14:16:22;;;;;;;4.32;1.50;;;;;;;;;;5038332;28;19935;-46
2023/01/29 14:18:51;;;;;;;5.32;1.60;;;;;;;;;;5036079;28;20036;-45
2023/01/29 14:21:24;;;;;;;5.88;1.40;;;;;;;;;;5036295;28;20032;-46
2023/01/29 14:23:49;;;;;;;;;;;;;;;;;;5041702;28;20029;-46
2023/01/29 14:26:21;;;;;;;3.80;1.48;;;;;;;;;;5044258;28;19909;-45
2023/01/29 14:29:03;;;;;;;7.95;2.00;;;;;;;;;;5040859;28;20017;-47
2023/01/29 14:31:30;;;;;;;2.53;1.60;;;;;;;;;;5045873;28;20029;-48
2023/01/29 14:34:00;;;;;;;7.65;1.70;;;;;;;;;;5039940;28;20036;-47
2023/01/29 14:36:26;;;;;;;3.47;1.70;;;;;;;;;;5039391;28;20077;-47
2023/01/29 14:38:53;;;;;;;5.38;1.73;;;;;;;;;;5048843;28;20016;-46
2023/01/29 14:41:25;;;;;;;4.90;2.40;;;;;;;;;;5039230;28;20029;-46
2023/01/29 14:43:51;;;;;;;4.68;1.55;;;;;;;;;;5045390;28;20116;-47
2023/01/29 14:46:32;;;;;;;2.80;1.50;;;;;;;;;;5046455;28;20108;-47
2023/01/29 14:48:58;;;;;;;5.38;1.67;;;;;;;;;;5047335;28;20377;-47
2023/01/29 14:51:26;;;;;;;4.15;1.83;;;;;;;;;;5049044;28;20397;-47
2023/01/29 14:53:55;;;;;;;6.72;1.75;;;;;;;;;;5043193;28;20071;-46
2023/01/29 14:56:21;;;;;;;4.57;1.50;;;;;;;;;;5044513;28;20036;-45
2023/01/29 14:58:48;;;;;;;3.63;1.50;;;;;;;;;;5047369;28;20431;-46
2023/01/29 15:01:22;;;;;;;5.88;2.03;;;;;;;;;;5049276;28;20049;-46
2023/01/29 15:03:53;;;;;;;6.53;1.77;;;;;;;;;;5051929;28;20026;-46
2023/01/29 15:06:39;;;;;;;4.57;1.63;;;;;;;;;;5057847;28;20444;-47
2023/01/29 15:09:12;;;;;;;5.88;2.25;;;;;;;;;;5019128;28;20040;-45
2023/01/29 15:11:58;;;;;;;6.45;2.58;;;;;;;;;;5066957;28;20020;-46
2023/01/29 15:14:28;;;;;;;4.97;1.70;;;;;;;;;;5026681;28;20041;-46
2023/01/29 15:17:00;;;;;;;4.70;1.58;;;;;;;;;;5062962;28;20483;-48
2023/01/29 15:19:26;;;;;;;;;;;;;;;;;;5066591;28;20048;-47
2023/01/29 15:22:05;;;;;;;8.68;2.08;;;;;;;;;;5067693;28;19995;-50
2023/01/29 15:24:31;;;;;;;3.25;1.48;;;;;;;;;;5066915;28;20040;-50
2023/01/29 15:26:57;;;;;;;3.65;1.58;;;;;;;;;;5063011;28;20074;-53
2023/01/29 15:29:25;;;;;;;6.07;2.03;;;;;;;;;;5066709;28;20028;-47
2023/01/29 15:31:51;;;;;;;23.42;2.22;;;;;;;;;;5065761;28;20028;-48
2023/01/29 15:34:17;;;;;;;6.18;1.67;;;;;;;;;;5049186;28;20427;-47